Gracey, Kentucky
Current Conditions -  °F | °C
As of 8:58 AM on Tuesday 21 Oct 2014 (Local Time) from KHOP Reporting Station
Clear Clear  
Wind Chill: 57°   Ceiling: Unl
Heat Index: 57°   Visibility: 10mi
Dew Point: 53°   Wind: 7mph
Humidity: 87%   Direction: 310°NW
Pressure: 30.07"   Gusts: NA
Location:  36.88°N, 87.66°W
Report Text: KHOP 211358Z AUTO 31006KT 10SM CLR 14/12 A3007 RMK AO2 SLP183 T01370115
Loading
Personal Weather Stations






























Interactive Weather Map
Tropical Storm Tracking
New forecast layout! Learn more

10-Day Weather Forecast

Advertisements
Track Severe Weather on mobile